sensor_id;sensor_type;location;lat;lon;timestamp;P1;durP1;ratioP1;P2;durP2;ratioP2
21233;SDS011;10774;42.178;26.578;2023-04-21T00:00:51;8.65;;;6.93;;
21233;SDS011;10774;42.178;26.578;2023-04-21T00:03:17;6.28;;;5.22;;
21233;SDS011;10774;42.178;26.578;2023-04-21T00:05:47;8.93;;;5.15;;
21233;SDS011;10774;42.178;26.578;2023-04-21T00:08:14;8.73;;;7.22;;
21233;SDS011;10774;42.178;26.578;2023-04-21T00:10:39;12.07;;;8.50;;
21233;SDS011;10774;42.178;26.578;2023-04-21T00:13:05;25.02;;;11.52;;
21233;SDS011;10774;42.178;26.578;2023-04-21T00:15:30;17.10;;;11.35;;
21233;SDS011;10774;42.178;26.578;2023-04-21T00:17:57;14.10;;;9.45;;
21233;SDS011;10774;42.178;26.578;2023-04-21T00:20:23;11.00;;;8.27;;
21233;SDS011;10774;42.178;26.578;2023-04-21T00:22:52;10.63;;;6.75;;
21233;SDS011;10774;42.178;26.578;2023-04-21T00:25:18;9.23;;;6.30;;
21233;SDS011;10774;42.178;26.578;2023-04-21T00:27:44;9.63;;;6.38;;
21233;SDS011;10774;42.178;26.578;2023-04-21T00:30:09;9.35;;;7.15;;
21233;SDS011;10774;42.178;26.578;2023-04-21T00:32:35;8.73;;;7.00;;
21233;SDS011;10774;42.178;26.578;2023-04-21T00:35:01;6.38;;;5.63;;
21233;SDS011;10774;42.178;26.578;2023-04-21T00:37:26;6.82;;;5.95;;
21233;SDS011;10774;42.178;26.578;2023-04-21T00:39:51;5.63;;;5.05;;
21233;SDS011;10774;42.178;26.578;2023-04-21T00:42:17;7.25;;;5.50;;
21233;SDS011;10774;42.178;26.578;2023-04-21T00:44:42;8.82;;;6.07;;
21233;SDS011;10774;42.178;26.578;2023-04-21T00:47:08;8.32;;;5.75;;
21233;SDS011;10774;42.178;26.578;2023-04-21T00:49:33;10.25;;;6.30;;
21233;SDS011;10774;42.178;26.578;2023-04-21T00:51:59;9.48;;;6.22;;
21233;SDS011;10774;42.178;26.578;2023-04-21T00:54:25;9.82;;;6.63;;
21233;SDS011;10774;42.178;26.578;2023-04-21T00:56:51;8.15;;;6.60;;
21233;SDS011;10774;42.178;26.578;2023-04-21T00:59:17;8.60;;;5.57;;
21233;SDS011;10774;42.178;26.578;2023-04-21T01:01:42;7.10;;;4.90;;
21233;SDS011;10774;42.178;26.578;2023-04-21T01:04:08;6.35;;;5.07;;
21233;SDS011;10774;42.178;26.578;2023-04-21T01:06:34;5.90;;;5.15;;
21233;SDS011;10774;42.178;26.578;2023-04-21T01:09:00;5.38;;;4.88;;
21233;SDS011;10774;42.178;26.578;2023-04-21T01:11:27;5.90;;;4.50;;
21233;SDS011;10774;42.178;26.578;2023-04-21T01:13:53;5.40;;;4.68;;
21233;SDS011;10774;42.178;26.578;2023-04-21T01:16:19;6.97;;;4.80;;
21233;SDS011;10774;42.178;26.578;2023-04-21T01:18:47;5.53;;;4.80;;
21233;SDS011;10774;42.178;26.578;2023-04-21T01:21:12;7.40;;;5.07;;
21233;SDS011;10774;42.178;26.578;2023-04-21T01:23:41;8.38;;;5.40;;
21233;SDS011;10774;42.178;26.578;2023-04-21T01:26:07;8.00;;;6.20;;
21233;SDS011;10774;42.178;26.578;2023-04-21T01:28:33;7.70;;;5.50;;
21233;SDS011;10774;42.178;26.578;2023-04-21T01:30:59;9.23;;;5.90;;
21233;SDS011;10774;42.178;26.578;2023-04-21T01:33:25;8.55;;;5.53;;
21233;SDS011;10774;42.178;26.578;2023-04-21T01:35:50;8.82;;;5.50;;
21233;SDS011;10774;42.178;26.578;2023-04-21T01:38:16;5.53;;;4.95;;
21233;SDS011;10774;42.178;26.578;2023-04-21T01:40:43;7.32;;;5.30;;
21233;SDS011;10774;42.178;26.578;2023-04-21T01:43:15;5.63;;;4.80;;
21233;SDS011;10774;42.178;26.578;2023-04-21T01:45:43;5.57;;;4.85;;
21233;SDS011;10774;42.178;26.578;2023-04-21T01:48:09;10.52;;;4.68;;
21233;SDS011;10774;42.178;26.578;2023-04-21T01:50:34;5.78;;;4.13;;
21233;SDS011;10774;42.178;26.578;2023-04-21T01:53:00;7.10;;;3.90;;
21233;SDS011;10774;42.178;26.578;2023-04-21T01:55:25;4.65;;;3.88;;
21233;SDS011;10774;42.178;26.578;2023-04-21T01:57:50;4.13;;;3.42;;
21233;SDS011;10774;42.178;26.578;2023-04-21T02:00:16;3.50;;;3.20;;
21233;SDS011;10774;42.178;26.578;2023-04-21T02:02:41;11.57;;;4.22;;
21233;SDS011;10774;42.178;26.578;2023-04-21T02:05:07;4.03;;;3.50;;
21233;SDS011;10774;42.178;26.578;2023-04-21T02:07:33;4.68;;;3.60;;
21233;SDS011;10774;42.178;26.578;2023-04-21T02:09:58;5.88;;;3.38;;
21233;SDS011;10774;42.178;26.578;2023-04-21T02:12:23;4.10;;;3.70;;
21233;SDS011;10774;42.178;26.578;2023-04-21T02:14:49;7.78;;;4.15;;
21233;SDS011;10774;42.178;26.578;2023-04-21T02:17:14;6.20;;;4.53;;
21233;SDS011;10774;42.178;26.578;2023-04-21T02:19:41;11.88;;;5.45;;
21233;SDS011;10774;42.178;26.578;2023-04-21T02:22:06;10.10;;;5.03;;
21233;SDS011;10774;42.178;26.578;2023-04-21T02:24:32;8.32;;;5.60;;
21233;SDS011;10774;42.178;26.578;2023-04-21T02:26:59;13.80;;;5.85;;
21233;SDS011;10774;42.178;26.578;2023-04-21T02:29:26;8.60;;;4.53;;
21233;SDS011;10774;42.178;26.578;2023-04-21T02:31:51;6.40;;;4.53;;
21233;SDS011;10774;42.178;26.578;2023-04-21T02:34:17;7.25;;;4.97;;
21233;SDS011;10774;42.178;26.578;2023-04-21T02:36:42;6.30;;;4.80;;
21233;SDS011;10774;42.178;26.578;2023-04-21T02:39:07;6.18;;;5.10;;
21233;SDS011;10774;42.178;26.578;2023-04-21T02:41:33;15.02;;;9.90;;
21233;SDS011;10774;42.178;26.578;2023-04-21T02:43:58;60.53;;;12.63;;
21233;SDS011;10774;42.178;26.578;2023-04-21T02:46:24;107.85;;;13.82;;
21233;SDS011;10774;42.178;26.578;2023-04-21T02:48:49;143.77;;;11.75;;
21233;SDS011;10774;42.178;26.578;2023-04-21T02:51:15;129.25;;;13.30;;
21233;SDS011;10774;42.178;26.578;2023-04-21T02:53:41;15.77;;;10.57;;
21233;SDS011;10774;42.178;26.578;2023-04-21T02:56:07;91.68;;;10.93;;
21233;SDS011;10774;42.178;26.578;2023-04-21T02:58:36;34.58;;;8.90;;
21233;SDS011;10774;42.178;26.578;2023-04-21T03:01:02;22.05;;;7.90;;
21233;SDS011;10774;42.178;26.578;2023-04-21T03:03:28;20.75;;;8.15;;
21233;SDS011;10774;42.178;26.578;2023-04-21T03:06:02;76.25;;;9.52;;
21233;SDS011;10774;42.178;26.578;2023-04-21T03:08:28;24.95;;;8.07;;
21233;SDS011;10774;42.178;26.578;2023-04-21T03:10:54;46.22;;;9.60;;
21233;SDS011;10774;42.178;26.578;2023-04-21T03:13:20;58.53;;;10.25;;
21233;SDS011;10774;42.178;26.578;2023-04-21T03:15:46;19.27;;;9.65;;
21233;SDS011;10774;42.178;26.578;2023-04-21T03:18:11;18.25;;;9.80;;
21233;SDS011;10774;42.178;26.578;2023-04-21T03:20:37;25.25;;;13.38;;
21233;SDS011;10774;42.178;26.578;2023-04-21T03:23:02;41.78;;;16.88;;
21233;SDS011;10774;42.178;26.578;2023-04-21T03:25:28;40.30;;;17.85;;
21233;SDS011;10774;42.178;26.578;2023-04-21T03:27:54;58.55;;;15.93;;
21233;SDS011;10774;42.178;26.578;2023-04-21T03:30:19;25.65;;;13.48;;
21233;SDS011;10774;42.178;26.578;2023-04-21T03:32:46;27.48;;;14.40;;
21233;SDS011;10774;42.178;26.578;2023-04-21T03:35:11;28.45;;;14.23;;
21233;SDS011;10774;42.178;26.578;2023-04-21T03:37:37;16.83;;;11.93;;
21233;SDS011;10774;42.178;26.578;2023-04-21T03:40:02;16.85;;;12.35;;
21233;SDS011;10774;42.178;26.578;2023-04-21T03:42:32;16.65;;;12.90;;
21233;SDS011;10774;42.178;26.578;2023-04-21T03:45:04;19.13;;;14.25;;
21233;SDS011;10774;42.178;26.578;2023-04-21T03:47:31;28.95;;;21.23;;
21233;SDS011;10774;42.178;26.578;2023-04-21T03:49:56;30.92;;;20.83;;
21233;SDS011;10774;42.178;26.578;2023-04-21T03:52:22;25.52;;;20.00;;
21233;SDS011;10774;42.178;26.578;2023-04-21T03:54:48;16.80;;;11.95;;
21233;SDS011;10774;42.178;26.578;2023-04-21T03:57:13;15.07;;;10.13;;
21233;SDS011;10774;42.178;26.578;2023-04-21T03:59:39;9.25;;;7.28;;
21233;SDS011;10774;42.178;26.578;2023-04-21T04:02:05;9.80;;;6.15;;
21233;SDS011;10774;42.178;26.578;2023-04-21T04:04:31;12.70;;;9.70;;
21233;SDS011;10774;42.178;26.578;2023-04-21T04:06:56;13.98;;;10.13;;
21233;SDS011;10774;42.178;26.578;2023-04-21T04:09:22;8.20;;;5.60;;
21233;SDS011;10774;42.178;26.578;2023-04-21T04:11:48;6.18;;;4.60;;
21233;SDS011;10774;42.178;26.578;2023-04-21T04:14:13;6.85;;;4.82;;
21233;SDS011;10774;42.178;26.578;2023-04-21T04:16:39;7.45;;;4.90;;
21233;SDS011;10774;42.178;26.578;2023-04-21T04:19:05;6.13;;;5.22;;
21233;SDS011;10774;42.178;26.578;2023-04-21T04:21:31;15.25;;;8.10;;
21233;SDS011;10774;42.178;26.578;2023-04-21T04:23:56;12.77;;;9.27;;
21233;SDS011;10774;42.178;26.578;2023-04-21T04:26:23;10.32;;;6.40;;
21233;SDS011;10774;42.178;26.578;2023-04-21T04:28:49;21.90;;;14.63;;
21233;SDS011;10774;42.178;26.578;2023-04-21T04:31:15;30.48;;;24.48;;
21233;SDS011;10774;42.178;26.578;2023-04-21T04:33:41;8.95;;;7.80;;
21233;SDS011;10774;42.178;26.578;2023-04-21T04:36:06;10.73;;;8.43;;
21233;SDS011;10774;42.178;26.578;2023-04-21T04:38:32;11.00;;;8.50;;
21233;SDS011;10774;42.178;26.578;2023-04-21T04:41:01;10.07;;;8.25;;
21233;SDS011;10774;42.178;26.578;2023-04-21T04:43:27;11.73;;;8.63;;
21233;SDS011;10774;42.178;26.578;2023-04-21T04:45:53;12.45;;;9.85;;
21233;SDS011;10774;42.178;26.578;2023-04-21T04:48:18;10.00;;;8.20;;
21233;SDS011;10774;42.178;26.578;2023-04-21T04:50:44;10.13;;;7.97;;
21233;SDS011;10774;42.178;26.578;2023-04-21T04:53:09;9.10;;;8.07;;
21233;SDS011;10774;42.178;26.578;2023-04-21T04:55:35;11.05;;;8.63;;
21233;SDS011;10774;42.178;26.578;2023-04-21T04:58:01;13.55;;;8.95;;
21233;SDS011;10774;42.178;26.578;2023-04-21T05:00:26;10.55;;;8.32;;
21233;SDS011;10774;42.178;26.578;2023-04-21T05:02:52;9.65;;;8.45;;
21233;SDS011;10774;42.178;26.578;2023-04-21T05:05:18;12.65;;;9.18;;
21233;SDS011;10774;42.178;26.578;2023-04-21T05:07:45;15.60;;;8.73;;
21233;SDS011;10774;42.178;26.578;2023-04-21T05:10:11;17.27;;;8.75;;
21233;SDS011;10774;42.178;26.578;2023-04-21T05:12:37;11.48;;;9.73;;
21233;SDS011;10774;42.178;26.578;2023-04-21T05:15:03;13.68;;;10.00;;
21233;SDS011;10774;42.178;26.578;2023-04-21T05:17:30;16.83;;;11.40;;
21233;SDS011;10774;42.178;26.578;2023-04-21T05:19:57;12.52;;;8.93;;
21233;SDS011;10774;42.178;26.578;2023-04-21T05:22:22;17.67;;;11.85;;
21233;SDS011;10774;42.178;26.578;2023-04-21T05:24:48;16.33;;;12.35;;
21233;SDS011;10774;42.178;26.578;2023-04-21T05:27:13;17.38;;;11.07;;
21233;SDS011;10774;42.178;26.578;2023-04-21T05:29:39;16.02;;;10.93;;
21233;SDS011;10774;42.178;26.578;2023-04-21T05:32:04;9.20;;;6.97;;
21233;SDS011;10774;42.178;26.578;2023-04-21T05:34:30;7.05;;;6.35;;
21233;SDS011;10774;42.178;26.578;2023-04-21T05:36:56;7.63;;;5.72;;
21233;SDS011;10774;42.178;26.578;2023-04-21T05:39:21;7.43;;;6.55;;
21233;SDS011;10774;42.178;26.578;2023-04-21T05:41:46;11.82;;;6.78;;
21233;SDS011;10774;42.178;26.578;2023-04-21T05:44:12;7.88;;;6.30;;
21233;SDS011;10774;42.178;26.578;2023-04-21T05:46:37;8.30;;;6.60;;
21233;SDS011;10774;42.178;26.578;2023-04-21T05:49:03;9.88;;;8.45;;
21233;SDS011;10774;42.178;26.578;2023-04-21T05:51:28;10.30;;;7.20;;
21233;SDS011;10774;42.178;26.578;2023-04-21T05:53:54;8.80;;;7.30;;
21233;SDS011;10774;42.178;26.578;2023-04-21T05:56:19;7.97;;;6.60;;
21233;SDS011;10774;42.178;26.578;2023-04-21T05:58:45;9.07;;;8.18;;
21233;SDS011;10774;42.178;26.578;2023-04-21T06:01:10;13.27;;;7.68;;
21233;SDS011;10774;42.178;26.578;2023-04-21T06:03:37;13.18;;;8.70;;
21233;SDS011;10774;42.178;26.578;2023-04-21T06:06:03;9.35;;;8.27;;
21233;SDS011;10774;42.178;26.578;2023-04-21T06:08:30;9.30;;;7.55;;
21233;SDS011;10774;42.178;26.578;2023-04-21T06:10:55;8.15;;;7.00;;
21233;SDS011;10774;42.178;26.578;2023-04-21T06:13:21;10.27;;;6.28;;
21233;SDS011;10774;42.178;26.578;2023-04-21T06:15:46;8.23;;;6.80;;
21233;SDS011;10774;42.178;26.578;2023-04-21T06:18:12;7.78;;;6.50;;
21233;SDS011;10774;42.178;26.578;2023-04-21T06:20:37;11.40;;;6.60;;
21233;SDS011;10774;42.178;26.578;2023-04-21T06:23:04;11.02;;;6.47;;
21233;SDS011;10774;42.178;26.578;2023-04-21T06:25:30;9.43;;;7.10;;
21233;SDS011;10774;42.178;26.578;2023-04-21T06:27:55;27.42;;;18.85;;
21233;SDS011;10774;42.178;26.578;2023-04-21T06:30:21;12.63;;;11.32;;
21233;SDS011;10774;42.178;26.578;2023-04-21T06:32:46;11.48;;;7.28;;
21233;SDS011;10774;42.178;26.578;2023-04-21T06:35:12;9.98;;;4.82;;
21233;SDS011;10774;42.178;26.578;2023-04-21T06:37:39;7.15;;;5.13;;
21233;SDS011;10774;42.178;26.578;2023-04-21T06:40:07;5.18;;;4.00;;
21233;SDS011;10774;42.178;26.578;2023-04-21T06:42:33;5.28;;;4.43;;
21233;SDS011;10774;42.178;26.578;2023-04-21T06:44:59;9.25;;;5.35;;
21233;SDS011;10774;42.178;26.578;2023-04-21T06:47:24;7.65;;;5.45;;
21233;SDS011;10774;42.178;26.578;2023-04-21T06:49:50;6.32;;;4.50;;
21233;SDS011;10774;42.178;26.578;2023-04-21T06:52:15;4.72;;;3.60;;
21233;SDS011;10774;42.178;26.578;2023-04-21T06:54:41;6.40;;;3.70;;
21233;SDS011;10774;42.178;26.578;2023-04-21T06:57:06;6.03;;;4.18;;
21233;SDS011;10774;42.178;26.578;2023-04-21T06:59:31;4.22;;;3.50;;
21233;SDS011;10774;42.178;26.578;2023-04-21T07:01:58;4.57;;;3.58;;
21233;SDS011;10774;42.178;26.578;2023-04-21T07:04:24;3.70;;;2.78;;
21233;SDS011;10774;42.178;26.578;2023-04-21T07:06:53;5.07;;;3.80;;
21233;SDS011;10774;42.178;26.578;2023-04-21T07:09:19;3.78;;;3.35;;
21233;SDS011;10774;42.178;26.578;2023-04-21T07:11:45;5.10;;;3.70;;
21233;SDS011;10774;42.178;26.578;2023-04-21T07:14:11;5.30;;;3.72;;
21233;SDS011;10774;42.178;26.578;2023-04-21T07:16:36;6.07;;;4.43;;
21233;SDS011;10774;42.178;26.578;2023-04-21T07:19:01;6.97;;;4.40;;
21233;SDS011;10774;42.178;26.578;2023-04-21T07:21:27;5.32;;;3.40;;
21233;SDS011;10774;42.178;26.578;2023-04-21T07:23:55;4.70;;;3.40;;
21233;SDS011;10774;42.178;26.578;2023-04-21T07:26:20;5.70;;;3.67;;
21233;SDS011;10774;42.178;26.578;2023-04-21T07:28:45;5.13;;;3.95;;
21233;SDS011;10774;42.178;26.578;2023-04-21T07:31:11;6.82;;;3.88;;
21233;SDS011;10774;42.178;26.578;2023-04-21T07:33:36;5.78;;;4.57;;
21233;SDS011;10774;42.178;26.578;2023-04-21T07:36:01;6.07;;;4.55;;
21233;SDS011;10774;42.178;26.578;2023-04-21T07:38:27;5.80;;;4.28;;
21233;SDS011;10774;42.178;26.578;2023-04-21T07:40:52;7.10;;;4.80;;
21233;SDS011;10774;42.178;26.578;2023-04-21T07:43:18;6.85;;;4.78;;
21233;SDS011;10774;42.178;26.578;2023-04-21T07:45:44;5.80;;;4.50;;
21233;SDS011;10774;42.178;26.578;2023-04-21T07:48:10;5.47;;;4.57;;
21233;SDS011;10774;42.178;26.578;2023-04-21T07:50:48;9.23;;;5.53;;
21233;SDS011;10774;42.178;26.578;2023-04-21T07:53:14;7.20;;;5.55;;
21233;SDS011;10774;42.178;26.578;2023-04-21T07:55:40;5.22;;;4.72;;
21233;SDS011;10774;42.178;26.578;2023-04-21T07:58:05;7.50;;;4.63;;
21233;SDS011;10774;42.178;26.578;2023-04-21T08:00:30;6.03;;;4.60;;
21233;SDS011;10774;42.178;26.578;2023-04-21T08:02:56;9.02;;;4.82;;
21233;SDS011;10774;42.178;26.578;2023-04-21T08:05:21;9.73;;;5.97;;
21233;SDS011;10774;42.178;26.578;2023-04-21T08:07:47;5.32;;;4.72;;
21233;SDS011;10774;42.178;26.578;2023-04-21T08:10:12;7.65;;;5.40;;
21233;SDS011;10774;42.178;26.578;2023-04-21T08:12:38;5.70;;;5.18;;
21233;SDS011;10774;42.178;26.578;2023-04-21T08:15:03;6.43;;;5.78;;
21233;SDS011;10774;42.178;26.578;2023-04-21T08:17:32;6.57;;;5.45;;
21233;SDS011;10774;42.178;26.578;2023-04-21T08:19:57;6.80;;;5.60;;
21233;SDS011;10774;42.178;26.578;2023-04-21T08:22:23;5.63;;;5.03;;
21233;SDS011;10774;42.178;26.578;2023-04-21T08:24:48;6.18;;;5.47;;
21233;SDS011;10774;42.178;26.578;2023-04-21T08:27:14;6.60;;;5.03;;
21233;SDS011;10774;42.178;26.578;2023-04-21T08:29:39;6.18;;;5.15;;
21233;SDS011;10774;42.178;26.578;2023-04-21T08:32:05;9.20;;;5.00;;
21233;SDS011;10774;42.178;26.578;2023-04-21T08:34:30;5.82;;;5.20;;
21233;SDS011;10774;42.178;26.578;2023-04-21T08:36:56;6.07;;;4.68;;
21233;SDS011;10774;42.178;26.578;2023-04-21T08:39:21;9.60;;;4.85;;
21233;SDS011;10774;42.178;26.578;2023-04-21T08:41:46;8.25;;;6.15;;
21233;SDS011;10774;42.178;26.578;2023-04-21T08:44:12;5.43;;;4.90;;
21233;SDS011;10774;42.178;26.578;2023-04-21T08:46:37;6.15;;;5.22;;
21233;SDS011;10774;42.178;26.578;2023-04-21T08:49:03;6.72;;;4.65;;
21233;SDS011;10774;42.178;26.578;2023-04-21T08:51:29;7.93;;;5.60;;
21233;SDS011;10774;42.178;26.578;2023-04-21T08:53:56;5.43;;;4.80;;
21233;SDS011;10774;42.178;26.578;2023-04-21T08:56:25;7.40;;;5.07;;
21233;SDS011;10774;42.178;26.578;2023-04-21T08:58:51;6.80;;;5.38;;
21233;SDS011;10774;42.178;26.578;2023-04-21T09:01:16;7.03;;;5.53;;
21233;SDS011;10774;42.178;26.578;2023-04-21T09:03:42;6.25;;;4.30;;
21233;SDS011;10774;42.178;26.578;2023-04-21T09:06:08;6.22;;;5.60;;
21233;SDS011;10774;42.178;26.578;2023-04-21T09:08:36;8.35;;;6.15;;
21233;SDS011;10774;42.178;26.578;2023-04-21T09:11:03;5.90;;;4.88;;
21233;SDS011;10774;42.178;26.578;2023-04-21T09:13:36;4.88;;;4.40;;
21233;SDS011;10774;42.178;26.578;2023-04-21T09:16:02;8.98;;;4.53;;
21233;SDS011;10774;42.178;26.578;2023-04-21T09:18:29;6.82;;;4.72;;
21233;SDS011;10774;42.178;26.578;2023-04-21T09:23:51;16.75;;;5.18;;
21233;SDS011;10774;42.178;26.578;2023-04-21T09:26:18;4.53;;;4.13;;
21233;SDS011;10774;42.178;26.578;2023-04-21T09:28:46;4.88;;;4.35;;
21233;SDS011;10774;42.178;26.578;2023-04-21T09:31:14;5.75;;;4.32;;
21233;SDS011;10774;42.178;26.578;2023-04-21T09:33:44;4.85;;;4.22;;
21233;SDS011;10774;42.178;26.578;2023-04-21T09:36:20;6.38;;;5.78;;
21233;SDS011;10774;42.178;26.578;2023-04-21T09:41:19;6.28;;;3.53;;
21233;SDS011;10774;42.178;26.578;2023-04-21T09:43:45;5.05;;;3.70;;
21233;SDS011;10774;42.178;26.578;2023-04-21T09:46:11;5.78;;;4.70;;
21233;SDS011;10774;42.178;26.578;2023-04-21T09:48:40;4.25;;;3.35;;
21233;SDS011;10774;42.178;26.578;2023-04-21T09:51:09;4.65;;;4.25;;
21233;SDS011;10774;42.178;26.578;2023-04-21T09:53:39;4.15;;;3.22;;
21233;SDS011;10774;42.178;26.578;2023-04-21T09:56:05;4.25;;;3.25;;
21233;SDS011;10774;42.178;26.578;2023-04-21T09:58:38;7.25;;;4.10;;
21233;SDS011;10774;42.178;26.578;2023-04-21T10:01:06;5.68;;;3.40;;
21233;SDS011;10774;42.178;26.578;2023-04-21T10:03:33;4.38;;;3.40;;
21233;SDS011;10774;42.178;26.578;2023-04-21T10:06:03;5.88;;;3.40;;
21233;SDS011;10774;42.178;26.578;2023-04-21T10:08:29;3.47;;;3.17;;
21233;SDS011;10774;42.178;26.578;2023-04-21T10:10:55;5.45;;;3.10;;
21233;SDS011;10774;42.178;26.578;2023-04-21T10:13:22;4.97;;;3.88;;
21233;SDS011;10774;42.178;26.578;2023-04-21T10:15:48;29.67;;;22.45;;
21233;SDS011;10774;42.178;26.578;2023-04-21T10:18:29;5.32;;;3.15;;
21233;SDS011;10774;42.178;26.578;2023-04-21T10:21:01;5.38;;;3.25;;
21233;SDS011;10774;42.178;26.578;2023-04-21T10:23:38;4.30;;;3.42;;
21233;SDS011;10774;42.178;26.578;2023-04-21T10:28:42;7.72;;;3.67;;
21233;SDS011;10774;42.178;26.578;2023-04-21T10:31:15;5.70;;;3.35;;
21233;SDS011;10774;42.178;26.578;2023-04-21T10:33:41;5.18;;;3.00;;
21233;SDS011;10774;42.178;26.578;2023-04-21T10:36:06;6.32;;;3.45;;
21233;SDS011;10774;42.178;26.578;2023-04-21T10:38:40;4.57;;;3.08;;
21233;SDS011;10774;42.178;26.578;2023-04-21T10:43:52;6.32;;;3.33;;
21233;SDS011;10774;42.178;26.578;2023-04-21T10:46:36;5.72;;;4.07;;
21233;SDS011;10774;42.178;26.578;2023-04-21T10:49:07;9.38;;;3.72;;
21233;SDS011;10774;42.178;26.578;2023-04-21T10:52:18;5.35;;;3.15;;
21233;SDS011;10774;42.178;26.578;2023-04-21T10:54:42;4.85;;;2.90;;
21233;SDS011;10774;42.178;26.578;2023-04-21T10:57:30;5.00;;;3.38;;
21233;SDS011;10774;42.178;26.578;2023-04-21T10:59:57;5.32;;;3.97;;
21233;SDS011;10774;42.178;26.578;2023-04-21T11:02:22;5.05;;;3.83;;
21233;SDS011;10774;42.178;26.578;2023-04-21T11:04:51;6.18;;;2.60;;
21233;SDS011;10774;42.178;26.578;2023-04-21T11:07:18;3.05;;;2.00;;
21233;SDS011;10774;42.178;26.578;2023-04-21T11:09:46;5.97;;;3.70;;
21233;SDS011;10774;42.178;26.578;2023-04-21T11:12:13;7.68;;;3.13;;
21233;SDS011;10774;42.178;26.578;2023-04-21T11:14:40;4.43;;;3.00;;
21233;SDS011;10774;42.178;26.578;2023-04-21T11:17:11;6.85;;;2.83;;
21233;SDS011;10774;42.178;26.578;2023-04-21T11:19:37;3.42;;;3.13;;
21233;SDS011;10774;42.178;26.578;2023-04-21T11:22:03;4.53;;;3.50;;
21233;SDS011;10774;42.178;26.578;2023-04-21T11:24:32;7.93;;;4.57;;
21233;SDS011;10774;42.178;26.578;2023-04-21T11:26:58;4.43;;;3.60;;
21233;SDS011;10774;42.178;26.578;2023-04-21T11:29:27;5.35;;;3.50;;
21233;SDS011;10774;42.178;26.578;2023-04-21T11:31:55;6.43;;;4.40;;
21233;SDS011;10774;42.178;26.578;2023-04-21T11:34:24;7.55;;;4.53;;
21233;SDS011;10774;42.178;26.578;2023-04-21T11:36:50;6.60;;;4.20;;
21233;SDS011;10774;42.178;26.578;2023-04-21T11:39:17;4.75;;;3.03;;
21233;SDS011;10774;42.178;26.578;2023-04-21T11:41:46;7.15;;;3.35;;
21233;SDS011;10774;42.178;26.578;2023-04-21T11:44:13;7.25;;;4.30;;
21233;SDS011;10774;42.178;26.578;2023-04-21T11:46:54;6.40;;;3.90;;
21233;SDS011;10774;42.178;26.578;2023-04-21T11:49:20;5.95;;;3.80;;
21233;SDS011;10774;42.178;26.578;2023-04-21T11:51:49;9.45;;;4.00;;
21233;SDS011;10774;42.178;26.578;2023-04-21T11:54:16;7.65;;;4.32;;
21233;SDS011;10774;42.178;26.578;2023-04-21T11:56:44;11.27;;;5.20;;
21233;SDS011;10774;42.178;26.578;2023-04-21T11:59:11;13.85;;;8.18;;
21233;SDS011;10774;42.178;26.578;2023-04-21T12:01:46;16.40;;;13.27;;
21233;SDS011;10774;42.178;26.578;2023-04-21T12:04:13;10.90;;;9.77;;
21233;SDS011;10774;42.178;26.578;2023-04-21T12:06:46;12.65;;;7.72;;
21233;SDS011;10774;42.178;26.578;2023-04-21T12:09:21;8.38;;;5.30;;
21233;SDS011;10774;42.178;26.578;2023-04-21T12:11:51;12.68;;;9.13;;
21233;SDS011;10774;42.178;26.578;2023-04-21T12:14:18;12.80;;;7.97;;
21233;SDS011;10774;42.178;26.578;2023-04-21T12:16:46;11.95;;;7.85;;
21233;SDS011;10774;42.178;26.578;2023-04-21T12:19:36;17.88;;;10.45;;
21233;SDS011;10774;42.178;26.578;2023-04-21T12:22:05;20.17;;;14.05;;
21233;SDS011;10774;42.178;26.578;2023-04-21T12:24:31;8.95;;;6.07;;
21233;SDS011;10774;42.178;26.578;2023-04-21T12:26:56;11.15;;;7.22;;
21233;SDS011;10774;42.178;26.578;2023-04-21T12:29:22;10.82;;;4.93;;
21233;SDS011;10774;42.178;26.578;2023-04-21T12:31:47;6.75;;;4.45;;
21233;SDS011;10774;42.178;26.578;2023-04-21T12:34:13;5.97;;;4.93;;
21233;SDS011;10774;42.178;26.578;2023-04-21T12:36:38;10.00;;;5.78;;
21233;SDS011;10774;42.178;26.578;2023-04-21T12:39:04;8.07;;;5.32;;
21233;SDS011;10774;42.178;26.578;2023-04-21T12:41:30;8.45;;;5.75;;
21233;SDS011;10774;42.178;26.578;2023-04-21T12:44:01;7.43;;;5.55;;
21233;SDS011;10774;42.178;26.578;2023-04-21T12:46:27;9.40;;;6.32;;
21233;SDS011;10774;42.178;26.578;2023-04-21T12:48:56;5.18;;;3.72;;
21233;SDS011;10774;42.178;26.578;2023-04-21T12:51:21;7.13;;;3.45;;
21233;SDS011;10774;42.178;26.578;2023-04-21T12:53:50;3.75;;;2.80;;
21233;SDS011;10774;42.178;26.578;2023-04-21T12:56:17;5.15;;;3.60;;
21233;SDS011;10774;42.178;26.578;2023-04-21T12:58:43;9.25;;;6.25;;
21233;SDS011;10774;42.178;26.578;2023-04-21T13:01:08;12.63;;;7.40;;
21233;SDS011;10774;42.178;26.578;2023-04-21T13:03:34;9.45;;;6.93;;
21233;SDS011;10774;42.178;26.578;2023-04-21T13:05:59;5.90;;;4.15;;
21233;SDS011;10774;42.178;26.578;2023-04-21T13:08:25;4.45;;;3.10;;
21233;SDS011;10774;42.178;26.578;2023-04-21T13:10:50;4.25;;;2.42;;
21233;SDS011;10774;42.178;26.578;2023-04-21T13:13:15;4.00;;;2.60;;
21233;SDS011;10774;42.178;26.578;2023-04-21T13:15:41;7.10;;;4.85;;
21233;SDS011;10774;42.178;26.578;2023-04-21T13:18:06;7.57;;;4.45;;
21233;SDS011;10774;42.178;26.578;2023-04-21T13:20:32;8.20;;;4.90;;
21233;SDS011;10774;42.178;26.578;2023-04-21T13:22:57;7.05;;;3.30;;
21233;SDS011;10774;42.178;26.578;2023-04-21T13:25:22;6.13;;;3.90;;
21233;SDS011;10774;42.178;26.578;2023-04-21T13:27:48;21.15;;;11.02;;
21233;SDS011;10774;42.178;26.578;2023-04-21T13:30:14;20.27;;;12.73;;
21233;SDS011;10774;42.178;26.578;2023-04-21T13:32:40;8.18;;;5.32;;
21233;SDS011;10774;42.178;26.578;2023-04-21T13:35:07;6.43;;;4.28;;
21233;SDS011;10774;42.178;26.578;2023-04-21T13:37:37;8.23;;;4.43;;
21233;SDS011;10774;42.178;26.578;2023-04-21T13:40:04;7.10;;;3.08;;
21233;SDS011;10774;42.178;26.578;2023-04-21T13:42:31;8.88;;;4.55;;
21233;SDS011;10774;42.178;26.578;2023-04-21T13:44:57;11.75;;;8.25;;
21233;SDS011;10774;42.178;26.578;2023-04-21T13:47:23;14.57;;;8.90;;
21233;SDS011;10774;42.178;26.578;2023-04-21T13:49:49;8.98;;;4.07;;
21233;SDS011;10774;42.178;26.578;2023-04-21T13:52:15;4.88;;;3.88;;
21233;SDS011;10774;42.178;26.578;2023-04-21T13:54:41;5.93;;;3.45;;
21233;SDS011;10774;42.178;26.578;2023-04-21T13:57:06;18.25;;;8.27;;
21233;SDS011;10774;42.178;26.578;2023-04-21T13:59:32;12.00;;;6.55;;
21233;SDS011;10774;42.178;26.578;2023-04-21T14:01:58;13.98;;;8.52;;
21233;SDS011;10774;42.178;26.578;2023-04-21T14:04:23;26.98;;;17.58;;
21233;SDS011;10774;42.178;26.578;2023-04-21T14:06:49;32.58;;;20.63;;
21233;SDS011;10774;42.178;26.578;2023-04-21T14:09:15;23.73;;;17.30;;
21233;SDS011;10774;42.178;26.578;2023-04-21T14:11:40;15.52;;;11.68;;
21233;SDS011;10774;42.178;26.578;2023-04-21T14:14:06;15.55;;;10.38;;
21233;SDS011;10774;42.178;26.578;2023-04-21T14:16:31;16.88;;;11.45;;
21233;SDS011;10774;42.178;26.578;2023-04-21T14:18:57;21.90;;;14.18;;
21233;SDS011;10774;42.178;26.578;2023-04-21T14:21:23;19.08;;;13.57;;
21233;SDS011;10774;42.178;26.578;2023-04-21T14:23:48;24.65;;;19.02;;
21233;SDS011;10774;42.178;26.578;2023-04-21T14:26:13;36.70;;;28.25;;
21233;SDS011;10774;42.178;26.578;2023-04-21T14:28:39;34.65;;;25.13;;
21233;SDS011;10774;42.178;26.578;2023-04-21T14:31:04;30.73;;;20.48;;
21233;SDS011;10774;42.178;26.578;2023-04-21T14:33:30;39.38;;;27.95;;
21233;SDS011;10774;42.178;26.578;2023-04-21T14:35:57;34.70;;;27.33;;